sensor_id;sensor_type;location;lat;lon;timestamp;temperature;humidity
40289;DHT22;28991;52.028;5.526;2023-01-15T00:01:30;18.10;54.30
40289;DHT22;28991;52.028;5.526;2023-01-15T00:03:56;18.30;54.30
40289;DHT22;28991;52.028;5.526;2023-01-15T00:06:22;18.30;54.30
40289;DHT22;28991;52.028;5.526;2023-01-15T00:08:48;18.00;54.20
40289;DHT22;28991;52.028;5.526;2023-01-15T00:11:14;18.00;54.20
40289;DHT22;28991;52.028;5.526;2023-01-15T00:13:40;17.90;54.10
40289;DHT22;28991;52.028;5.526;2023-01-15T00:16:06;17.90;54.10
40289;DHT22;28991;52.028;5.526;2023-01-15T00:18:32;18.00;54.20
40289;DHT22;28991;52.028;5.526;2023-01-15T00:21:01;17.90;54.10
40289;DHT22;28991;52.028;5.526;2023-01-15T00:23:27;18.00;54.20
40289;DHT22;28991;52.028;5.526;2023-01-15T00:26:12;18.00;54.20
40289;DHT22;28991;52.028;5.526;2023-01-15T00:28:57;17.90;54.20
40289;DHT22;28991;52.028;5.526;2023-01-15T00:31:23;18.00;54.30
40289;DHT22;28991;52.028;5.526;2023-01-15T00:33:49;18.00;54.30
40289;DHT22;28991;52.028;5.526;2023-01-15T00:36:14;17.90;54.20
40289;DHT22;28991;52.028;5.526;2023-01-15T00:38:40;17.90;54.20
40289;DHT22;28991;52.028;5.526;2023-01-15T00:41:05;17.90;54.20
40289;DHT22;28991;52.028;5.526;2023-01-15T00:43:31;17.90;54.20
40289;DHT22;28991;52.028;5.526;2023-01-15T00:45:56;17.90;54.20
40289;DHT22;28991;52.028;5.526;2023-01-15T00:48:21;17.90;54.20
40289;DHT22;28991;52.028;5.526;2023-01-15T00:50:47;18.00;54.30
40289;DHT22;28991;52.028;5.526;2023-01-15T00:53:12;17.90;54.20
40289;DHT22;28991;52.028;5.526;2023-01-15T00:55:38;18.10;54.40
40289;DHT22;28991;52.028;5.526;2023-01-15T00:58:03;17.90;54.20
40289;DHT22;28991;52.028;5.526;2023-01-15T01:00:29;17.90;54.20
40289;DHT22;28991;52.028;5.526;2023-01-15T01:02:55;17.90;54.20
40289;DHT22;28991;52.028;5.526;2023-01-15T01:05:20;17.80;54.20
40289;DHT22;28991;52.028;5.526;2023-01-15T01:07:46;17.90;54.30
40289;DHT22;28991;52.028;5.526;2023-01-15T01:10:11;18.00;54.30
40289;DHT22;28991;52.028;5.526;2023-01-15T01:12:37;17.90;54.30
40289;DHT22;28991;52.028;5.526;2023-01-15T01:15:03;17.90;54.30
40289;DHT22;28991;52.028;5.526;2023-01-15T01:17:28;17.90;54.30
40289;DHT22;28991;52.028;5.526;2023-01-15T01:19:54;17.90;54.20
40289;DHT22;28991;52.028;5.526;2023-01-15T01:22:19;17.90;54.30
40289;DHT22;28991;52.028;5.526;2023-01-15T01:24:45;17.90;54.30
40289;DHT22;28991;52.028;5.526;2023-01-15T01:27:10;17.90;54.20
40289;DHT22;28991;52.028;5.526;2023-01-15T01:29:36;17.90;54.30
40289;DHT22;28991;52.028;5.526;2023-01-15T01:32:01;18.00;54.30
40289;DHT22;28991;52.028;5.526;2023-01-15T01:34:26;18.00;54.30
40289;DHT22;28991;52.028;5.526;2023-01-15T01:36:52;17.90;54.30
40289;DHT22;28991;52.028;5.526;2023-01-15T01:39:18;17.70;54.20
40289;DHT22;28991;52.028;5.526;2023-01-15T01:41:44;17.90;54.40
40289;DHT22;28991;52.028;5.526;2023-01-15T01:46:54;17.90;54.30
40289;DHT22;28991;52.028;5.526;2023-01-15T01:49:19;17.80;54.30
40289;DHT22;28991;52.028;5.526;2023-01-15T01:51:49;18.00;54.40
40289;DHT22;28991;52.028;5.526;2023-01-15T01:54:16;17.80;54.30
40289;DHT22;28991;52.028;5.526;2023-01-15T01:56:42;17.90;54.40
40289;DHT22;28991;52.028;5.526;2023-01-15T01:59:07;18.30;54.60
40289;DHT22;28991;52.028;5.526;2023-01-15T02:01:33;18.20;54.50
40289;DHT22;28991;52.028;5.526;2023-01-15T02:03:59;17.90;54.40
40289;DHT22;28991;52.028;5.526;2023-01-15T02:06:24;17.70;54.30
40289;DHT22;28991;52.028;5.526;2023-01-15T02:08:51;18.40;54.70
40289;DHT22;28991;52.028;5.526;2023-01-15T02:11:18;17.90;54.40
40289;DHT22;28991;52.028;5.526;2023-01-15T02:13:52;17.80;54.30
40289;DHT22;28991;52.028;5.526;2023-01-15T02:18:55;17.70;54.30
40289;DHT22;28991;52.028;5.526;2023-01-15T02:24:02;17.90;54.40
40289;DHT22;28991;52.028;5.526;2023-01-15T02:29:06;17.80;54.30
40289;DHT22;28991;52.028;5.526;2023-01-15T02:31:35;17.90;55.00
40289;DHT22;28991;52.028;5.526;2023-01-15T02:34:03;17.90;54.40
40289;DHT22;28991;52.028;5.526;2023-01-15T02:36:30;17.80;54.40
40289;DHT22;28991;52.028;5.526;2023-01-15T02:38:57;17.80;54.30
40289;DHT22;28991;52.028;5.526;2023-01-15T02:41:24;17.90;54.40
40289;DHT22;28991;52.028;5.526;2023-01-15T02:43:51;18.50;54.70
40289;DHT22;28991;52.028;5.526;2023-01-15T02:46:18;18.10;54.50
40289;DHT22;28991;52.028;5.526;2023-01-15T02:48:46;17.80;54.40
40289;DHT22;28991;52.028;5.526;2023-01-15T02:51:15;17.80;54.40
40289;DHT22;28991;52.028;5.526;2023-01-15T02:53:42;18.20;54.60
40289;DHT22;28991;52.028;5.526;2023-01-15T02:56:18;17.80;54.40
40289;DHT22;28991;52.028;5.526;2023-01-15T02:58:44;18.10;54.50
40289;DHT22;28991;52.028;5.526;2023-01-15T03:01:12;17.80;54.40
40289;DHT22;28991;52.028;5.526;2023-01-15T03:03:45;17.90;54.40
40289;DHT22;28991;52.028;5.526;2023-01-15T03:08:37;17.80;54.30
40289;DHT22;28991;52.028;5.526;2023-01-15T03:11:10;17.80;54.30
40289;DHT22;28991;52.028;5.526;2023-01-15T03:16:12;17.80;54.30
40289;DHT22;28991;52.028;5.526;2023-01-15T03:21:35;17.70;54.30
40289;DHT22;28991;52.028;5.526;2023-01-15T03:24:03;17.80;54.30
40289;DHT22;28991;52.028;5.526;2023-01-15T03:26:30;17.80;54.30
40289;DHT22;28991;52.028;5.526;2023-01-15T03:28:55;17.80;54.30
40289;DHT22;28991;52.028;5.526;2023-01-15T03:31:21;17.80;54.30
40289;DHT22;28991;52.028;5.526;2023-01-15T03:33:46;17.80;54.30
40289;DHT22;28991;52.028;5.526;2023-01-15T03:36:12;17.80;54.40
40289;DHT22;28991;52.028;5.526;2023-01-15T03:38:38;17.70;54.30
40289;DHT22;28991;52.028;5.526;2023-01-15T03:51:17;17.80;54.30
40289;DHT22;28991;52.028;5.526;2023-01-15T03:53:45;17.80;54.30
40289;DHT22;28991;52.028;5.526;2023-01-15T03:56:30;17.80;54.40
40289;DHT22;28991;52.028;5.526;2023-01-15T03:59:02;17.70;54.30
40289;DHT22;28991;52.028;5.526;2023-01-15T04:01:33;17.80;54.30
40289;DHT22;28991;52.028;5.526;2023-01-15T04:04:00;17.70;54.30
40289;DHT22;28991;52.028;5.526;2023-01-15T04:06:26;17.80;54.30
40289;DHT22;28991;52.028;5.526;2023-01-15T04:08:53;17.90;54.40
40289;DHT22;28991;52.028;5.526;2023-01-15T04:11:23;17.80;54.30
40289;DHT22;28991;52.028;5.526;2023-01-15T04:13:49;17.80;54.40
40289;DHT22;28991;52.028;5.526;2023-01-15T04:16:16;17.70;54.30
40289;DHT22;28991;52.028;5.526;2023-01-15T04:18:43;17.70;54.30
40289;DHT22;28991;52.028;5.526;2023-01-15T04:21:09;18.20;54.60
40289;DHT22;28991;52.028;5.526;2023-01-15T04:23:34;17.70;54.30
40289;DHT22;28991;52.028;5.526;2023-01-15T04:26:00;17.70;54.30
40289;DHT22;28991;52.028;5.526;2023-01-15T04:28:25;17.70;54.30
40289;DHT22;28991;52.028;5.526;2023-01-15T04:30:51;17.60;54.20
40289;DHT22;28991;52.028;5.526;2023-01-15T04:33:16;17.70;54.30
40289;DHT22;28991;52.028;5.526;2023-01-15T04:35:42;17.70;54.30
40289;DHT22;28991;52.028;5.526;2023-01-15T04:38:07;17.70;54.30
40289;DHT22;28991;52.028;5.526;2023-01-15T04:40:32;17.70;54.30
40289;DHT22;28991;52.028;5.526;2023-01-15T04:43:16;17.80;54.30
40289;DHT22;28991;52.028;5.526;2023-01-15T04:46:01;17.70;54.30
40289;DHT22;28991;52.028;5.526;2023-01-15T04:48:26;17.70;54.30
40289;DHT22;28991;52.028;5.526;2023-01-15T04:50:52;17.70;54.30
40289;DHT22;28991;52.028;5.526;2023-01-15T04:53:17;18.50;54.70
40289;DHT22;28991;52.028;5.526;2023-01-15T04:55:43;17.80;54.30
40289;DHT22;28991;52.028;5.526;2023-01-15T04:58:08;18.30;54.70
40289;DHT22;28991;52.028;5.526;2023-01-15T05:00:34;17.70;54.30
40289;DHT22;28991;52.028;5.526;2023-01-15T05:02:59;17.70;54.30
40289;DHT22;28991;52.028;5.526;2023-01-15T05:05:25;17.80;54.30
40289;DHT22;28991;52.028;5.526;2023-01-15T05:07:50;17.70;54.30
40289;DHT22;28991;52.028;5.526;2023-01-15T05:10:16;17.80;54.30
40289;DHT22;28991;52.028;5.526;2023-01-15T05:12:41;17.70;54.30
40289;DHT22;28991;52.028;5.526;2023-01-15T05:15:07;17.70;54.30
40289;DHT22;28991;52.028;5.526;2023-01-15T05:17:32;17.80;54.30
40289;DHT22;28991;52.028;5.526;2023-01-15T05:19:58;17.80;54.40
40289;DHT22;28991;52.028;5.526;2023-01-15T05:22:23;17.80;54.40
40289;DHT22;28991;52.028;5.526;2023-01-15T05:24:49;17.70;54.30
40289;DHT22;28991;52.028;5.526;2023-01-15T05:27:14;17.70;54.30
40289;DHT22;28991;52.028;5.526;2023-01-15T05:29:40;18.20;54.60
40289;DHT22;28991;52.028;5.526;2023-01-15T05:32:05;17.70;54.30
40289;DHT22;28991;52.028;5.526;2023-01-15T05:34:31;17.60;54.20
40289;DHT22;28991;52.028;5.526;2023-01-15T05:36:56;17.70;54.30
40289;DHT22;28991;52.028;5.526;2023-01-15T05:39:22;17.70;54.30
40289;DHT22;28991;52.028;5.526;2023-01-15T05:41:47;17.60;53.80
40289;DHT22;28991;52.028;5.526;2023-01-15T05:44:19;17.80;53.10
40289;DHT22;28991;52.028;5.526;2023-01-15T05:46:45;17.80;51.90
40289;DHT22;28991;52.028;5.526;2023-01-15T05:49:12;17.80;51.30
40289;DHT22;28991;52.028;5.526;2023-01-15T05:51:38;17.90;51.20
40289;DHT22;28991;52.028;5.526;2023-01-15T05:54:05;18.40;51.20
40289;DHT22;28991;52.028;5.526;2023-01-15T05:56:30;18.00;50.50
40289;DHT22;28991;52.028;5.526;2023-01-15T05:58:58;18.20;50.50
40289;DHT22;28991;52.028;5.526;2023-01-15T06:01:24;18.10;50.40
40289;DHT22;28991;52.028;5.526;2023-01-15T06:03:49;18.20;50.30
40289;DHT22;28991;52.028;5.526;2023-01-15T06:06:15;18.70;50.60
40289;DHT22;28991;52.028;5.526;2023-01-15T06:08:41;18.20;49.60
40289;DHT22;28991;52.028;5.526;2023-01-15T06:11:07;18.20;49.80
40289;DHT22;28991;52.028;5.526;2023-01-15T06:13:33;18.30;49.40
40289;DHT22;28991;52.028;5.526;2023-01-15T06:15:59;18.40;49.20
40289;DHT22;28991;52.028;5.526;2023-01-15T06:18:24;18.40;48.90
40289;DHT22;28991;52.028;5.526;2023-01-15T06:20:50;18.30;48.40
40289;DHT22;28991;52.028;5.526;2023-01-15T06:23:16;18.30;48.20
40289;DHT22;28991;52.028;5.526;2023-01-15T06:25:42;18.30;47.90
40289;DHT22;28991;52.028;5.526;2023-01-15T06:28:07;18.30;48.00
40289;DHT22;28991;52.028;5.526;2023-01-15T06:30:33;18.30;47.60
40289;DHT22;28991;52.028;5.526;2023-01-15T06:32:58;18.60;47.70
40289;DHT22;28991;52.028;5.526;2023-01-15T06:35:24;18.40;47.10
40289;DHT22;28991;52.028;5.526;2023-01-15T06:37:50;18.40;47.20
40289;DHT22;28991;52.028;5.526;2023-01-15T06:40:17;18.20;46.90
40289;DHT22;28991;52.028;5.526;2023-01-15T06:42:43;18.40;46.70
40289;DHT22;28991;52.028;5.526;2023-01-15T06:45:27;18.40;46.60
40289;DHT22;28991;52.028;5.526;2023-01-15T06:48:14;18.70;46.00
40289;DHT22;28991;52.028;5.526;2023-01-15T06:50:39;18.40;46.30
40289;DHT22;28991;52.028;5.526;2023-01-15T06:53:05;18.60;46.20
40289;DHT22;28991;52.028;5.526;2023-01-15T06:55:30;18.90;46.10
40289;DHT22;28991;52.028;5.526;2023-01-15T06:57:56;18.90;45.70
40289;DHT22;28991;52.028;5.526;2023-01-15T07:00:21;18.50;45.30
40289;DHT22;28991;52.028;5.526;2023-01-15T07:02:47;18.50;45.20
40289;DHT22;28991;52.028;5.526;2023-01-15T07:05:12;19.00;45.50
40289;DHT22;28991;52.028;5.526;2023-01-15T07:07:37;18.40;45.10
40289;DHT22;28991;52.028;5.526;2023-01-15T07:10:03;18.70;44.40
40289;DHT22;28991;52.028;5.526;2023-01-15T07:12:29;18.50;44.80
40289;DHT22;28991;52.028;5.526;2023-01-15T07:14:54;18.50;44.70
40289;DHT22;28991;52.028;5.526;2023-01-15T07:17:20;18.60;44.70
40289;DHT22;28991;52.028;5.526;2023-01-15T07:19:45;18.70;44.50
40289;DHT22;28991;52.028;5.526;2023-01-15T07:22:11;18.60;44.20
40289;DHT22;28991;52.028;5.526;2023-01-15T07:24:36;18.60;44.50
40289;DHT22;28991;52.028;5.526;2023-01-15T07:27:02;18.50;44.30
40289;DHT22;28991;52.028;5.526;2023-01-15T07:29:27;18.60;43.90
40289;DHT22;28991;52.028;5.526;2023-01-15T07:31:53;19.00;44.50
40289;DHT22;28991;52.028;5.526;2023-01-15T07:34:18;18.90;44.30
40289;DHT22;28991;52.028;5.526;2023-01-15T07:36:44;18.60;44.10
40289;DHT22;28991;52.028;5.526;2023-01-15T07:39:10;18.70;43.80
40289;DHT22;28991;52.028;5.526;2023-01-15T07:41:35;18.60;44.10
40289;DHT22;28991;52.028;5.526;2023-01-15T07:44:19;18.90;44.10
40289;DHT22;28991;52.028;5.526;2023-01-15T07:47:08;18.70;43.80
40289;DHT22;28991;52.028;5.526;2023-01-15T07:49:57;18.60;43.60
40289;DHT22;28991;52.028;5.526;2023-01-15T07:52:23;18.90;43.90
40289;DHT22;28991;52.028;5.526;2023-01-15T07:54:49;19.00;43.60
40289;DHT22;28991;52.028;5.526;2023-01-15T07:57:16;18.50;43.30
40289;DHT22;28991;52.028;5.526;2023-01-15T07:59:42;18.60;43.40
40289;DHT22;28991;52.028;5.526;2023-01-15T08:02:07;18.70;43.50
40289;DHT22;28991;52.028;5.526;2023-01-15T08:04:33;18.60;43.40
40289;DHT22;28991;52.028;5.526;2023-01-15T08:06:59;18.70;43.40
40289;DHT22;28991;52.028;5.526;2023-01-15T08:09:25;18.60;43.30
40289;DHT22;28991;52.028;5.526;2023-01-15T08:11:51;19.30;43.60
40289;DHT22;28991;52.028;5.526;2023-01-15T08:14:35;18.80;43.10
40289;DHT22;28991;52.028;5.526;2023-01-15T08:17:19;18.60;43.10
40289;DHT22;28991;52.028;5.526;2023-01-15T08:19:45;18.70;42.70
40289;DHT22;28991;52.028;5.526;2023-01-15T08:22:10;18.70;43.00
40289;DHT22;28991;52.028;5.526;2023-01-15T08:24:36;18.80;43.40
40289;DHT22;28991;52.028;5.526;2023-01-15T08:27:02;18.70;42.90
40289;DHT22;28991;52.028;5.526;2023-01-15T08:29:27;18.80;43.10
40289;DHT22;28991;52.028;5.526;2023-01-15T08:31:53;18.80;42.80
40289;DHT22;28991;52.028;5.526;2023-01-15T08:34:18;18.90;43.10
40289;DHT22;28991;52.028;5.526;2023-01-15T08:36:44;18.90;42.90
40289;DHT22;28991;52.028;5.526;2023-01-15T08:39:09;18.90;43.00
40289;DHT22;28991;52.028;5.526;2023-01-15T08:41:35;18.90;42.90
40289;DHT22;28991;52.028;5.526;2023-01-15T08:44:00;18.80;42.70
40289;DHT22;28991;52.028;5.526;2023-01-15T08:46:26;19.70;43.20
40289;DHT22;28991;52.028;5.526;2023-01-15T08:48:51;19.00;42.40
40289;DHT22;28991;52.028;5.526;2023-01-15T08:51:20;18.80;42.80
40289;DHT22;28991;52.028;5.526;2023-01-15T08:53:45;18.80;42.60
40289;DHT22;28991;52.028;5.526;2023-01-15T08:56:17;19.00;42.60
40289;DHT22;28991;52.028;5.526;2023-01-15T08:58:43;19.00;42.30
40289;DHT22;28991;52.028;5.526;2023-01-15T09:01:09;19.20;42.20
40289;DHT22;28991;52.028;5.526;2023-01-15T09:03:36;19.20;42.30
40289;DHT22;28991;52.028;5.526;2023-01-15T09:06:02;19.20;42.50
40289;DHT22;28991;52.028;5.526;2023-01-15T09:08:28;19.10;42.40
40289;DHT22;28991;52.028;5.526;2023-01-15T09:10:57;19.10;42.10
40289;DHT22;28991;52.028;5.526;2023-01-15T09:13:23;19.10;42.40
40289;DHT22;28991;52.028;5.526;2023-01-15T09:15:49;19.10;42.20
40289;DHT22;28991;52.028;5.526;2023-01-15T09:18:14;19.10;42.20
40289;DHT22;28991;52.028;5.526;2023-01-15T09:20:44;19.50;42.50
40289;DHT22;28991;52.028;5.526;2023-01-15T09:23:09;19.30;42.60
40289;DHT22;28991;52.028;5.526;2023-01-15T09:25:34;19.20;42.30
40289;DHT22;28991;52.028;5.526;2023-01-15T09:28:00;19.50;42.20
40289;DHT22;28991;52.028;5.526;2023-01-15T09:30:25;19.60;41.90
40289;DHT22;28991;52.028;5.526;2023-01-15T09:32:51;19.60;41.60
40289;DHT22;28991;52.028;5.526;2023-01-15T09:35:16;19.40;41.30
40289;DHT22;28991;52.028;5.526;2023-01-15T09:37:42;19.40;41.30
40289;DHT22;28991;52.028;5.526;2023-01-15T09:40:11;19.50;41.10
40289;DHT22;28991;52.028;5.526;2023-01-15T09:42:45;19.50;41.20
40289;DHT22;28991;52.028;5.526;2023-01-15T09:48:22;19.60;41.30
40289;DHT22;28991;52.028;5.526;2023-01-15T09:50:41;19.60;40.70
40289;DHT22;28991;52.028;5.526;2023-01-15T09:53:12;19.70;40.50
40289;DHT22;28991;52.028;5.526;2023-01-15T09:55:44;19.80;40.30
40289;DHT22;28991;52.028;5.526;2023-01-15T09:58:10;19.80;40.70
40289;DHT22;28991;52.028;5.526;2023-01-15T10:00:38;19.70;40.60
40289;DHT22;28991;52.028;5.526;2023-01-15T10:05:43;19.80;40.50
40289;DHT22;28991;52.028;5.526;2023-01-15T10:08:11;19.80;40.30
40289;DHT22;28991;52.028;5.526;2023-01-15T10:10:49;19.80;40.30
40289;DHT22;28991;52.028;5.526;2023-01-15T10:16:18;19.90;39.60
40289;DHT22;28991;52.028;5.526;2023-01-15T10:18:44;20.00;39.40
40289;DHT22;28991;52.028;5.526;2023-01-15T10:23:58;20.10;39.60
40289;DHT22;28991;52.028;5.526;2023-01-15T10:26:43;20.10;38.90
40289;DHT22;28991;52.028;5.526;2023-01-15T10:29:35;20.10;39.00
40289;DHT22;28991;52.028;5.526;2023-01-15T10:32:09;20.20;38.90
40289;DHT22;28991;52.028;5.526;2023-01-15T10:34:55;20.20;38.70
40289;DHT22;28991;52.028;5.526;2023-01-15T10:40:15;20.30;38.60
40289;DHT22;28991;52.028;5.526;2023-01-15T10:45:21;20.20;39.30
40289;DHT22;28991;52.028;5.526;2023-01-15T10:47:49;20.20;39.40
40289;DHT22;28991;52.028;5.526;2023-01-15T10:50:18;20.10;39.60
40289;DHT22;28991;52.028;5.526;2023-01-15T10:55:32;20.00;40.10
40289;DHT22;28991;52.028;5.526;2023-01-15T10:58:06;20.00;40.40
40289;DHT22;28991;52.028;5.526;2023-01-15T11:00:36;20.30;40.60
40289;DHT22;28991;52.028;5.526;2023-01-15T11:03:09;19.90;40.30
40289;DHT22;28991;52.028;5.526;2023-01-15T11:05:39;19.90;40.60
40289;DHT22;28991;52.028;5.526;2023-01-15T11:08:12;19.90;40.50
40289;DHT22;28991;52.028;5.526;2023-01-15T11:10:38;19.90;40.50
40289;DHT22;28991;52.028;5.526;2023-01-15T11:13:23;19.90;40.30
40289;DHT22;28991;52.028;5.526;2023-01-15T11:16:19;19.90;40.20
40289;DHT22;28991;52.028;5.526;2023-01-15T11:19:04;19.90;40.40
40289;DHT22;28991;52.028;5.526;2023-01-15T11:21:49;19.90;40.30
40289;DHT22;28991;52.028;5.526;2023-01-15T11:24:15;19.90;40.30
40289;DHT22;28991;52.028;5.526;2023-01-15T11:26:44;19.80;40.40
40289;DHT22;28991;52.028;5.526;2023-01-15T11:29:29;19.80;40.50
40289;DHT22;28991;52.028;5.526;2023-01-15T11:31:56;19.80;40.40
40289;DHT22;28991;52.028;5.526;2023-01-15T11:34:21;19.60;40.80
40289;DHT22;28991;52.028;5.526;2023-01-15T11:36:48;19.70;40.30
40289;DHT22;28991;52.028;5.526;2023-01-15T11:39:25;19.80;40.50
40289;DHT22;28991;52.028;5.526;2023-01-15T11:42:05;19.70;40.10
40289;DHT22;28991;52.028;5.526;2023-01-15T11:44:51;19.70;40.60
40289;DHT22;28991;52.028;5.526;2023-01-15T11:47:35;19.60;39.80
40289;DHT22;28991;52.028;5.526;2023-01-15T11:50:19;19.50;40.30
40289;DHT22;28991;52.028;5.526;2023-01-15T11:53:04;19.60;40.70
40289;DHT22;28991;52.028;5.526;2023-01-15T11:55:31;19.40;40.70
40289;DHT22;28991;52.028;5.526;2023-01-15T11:57:57;19.50;40.50
40289;DHT22;28991;52.028;5.526;2023-01-15T12:00:33;19.50;40.90
40289;DHT22;28991;52.028;5.526;2023-01-15T12:03:01;19.40;40.60
40289;DHT22;28991;52.028;5.526;2023-01-15T12:05:29;19.30;40.40
40289;DHT22;28991;52.028;5.526;2023-01-15T12:08:00;19.70;40.80
40289;DHT22;28991;52.028;5.526;2023-01-15T12:10:34;19.40;40.80
40289;DHT22;28991;52.028;5.526;2023-01-15T12:21:20;19.20;41.40
40289;DHT22;28991;52.028;5.526;2023-01-15T12:24:18;19.10;41.50
40289;DHT22;28991;52.028;5.526;2023-01-15T12:26:33;19.10;41.70
40289;DHT22;28991;52.028;5.526;2023-01-15T12:29:04;19.00;41.80
40289;DHT22;28991;52.028;5.526;2023-01-15T12:34:12;19.00;41.90
40289;DHT22;28991;52.028;5.526;2023-01-15T12:36:40;18.90;42.00
40289;DHT22;28991;52.028;5.526;2023-01-15T12:41:56;18.80;42.00
40289;DHT22;28991;52.028;5.526;2023-01-15T12:44:45;18.80;42.00
40289;DHT22;28991;52.028;5.526;2023-01-15T12:50:04;18.80;42.20
40289;DHT22;28991;52.028;5.526;2023-01-15T12:52:36;18.60;42.20
40289;DHT22;28991;52.028;5.526;2023-01-15T12:55:18;18.60;42.30
40289;DHT22;28991;52.028;5.526;2023-01-15T12:57:46;18.60;42.50
40289;DHT22;28991;52.028;5.526;2023-01-15T13:00:16;18.60;42.50
40289;DHT22;28991;52.028;5.526;2023-01-15T13:05:21;18.50;42.60
40289;DHT22;28991;52.028;5.526;2023-01-15T13:10:28;18.40;42.80
40289;DHT22;28991;52.028;5.526;2023-01-15T13:13:14;18.50;42.90
40289;DHT22;28991;52.028;5.526;2023-01-15T13:16:03;18.40;42.90
40289;DHT22;28991;52.028;5.526;2023-01-15T13:18:31;18.40;43.00
40289;DHT22;28991;52.028;5.526;2023-01-15T13:21:00;18.40;43.10
40289;DHT22;28991;52.028;5.526;2023-01-15T13:26:19;18.40;43.70
40289;DHT22;28991;52.028;5.526;2023-01-15T13:29:16;18.30;43.10
40289;DHT22;28991;52.028;5.526;2023-01-15T13:34:30;18.30;43.30
40289;DHT22;28991;52.028;5.526;2023-01-15T13:37:02;18.30;43.40
40289;DHT22;28991;52.028;5.526;2023-01-15T13:39:32;18.30;43.40
40289;DHT22;28991;52.028;5.526;2023-01-15T13:42:00;18.30;43.40
40289;DHT22;28991;52.028;5.526;2023-01-15T13:44:46;18.30;43.40
40289;DHT22;28991;52.028;5.526;2023-01-15T13:47:12;18.30;43.50
40289;DHT22;28991;52.028;5.526;2023-01-15T13:49:45;18.20;43.50
40289;DHT22;28991;52.028;5.526;2023-01-15T13:52:19;18.20;43.50
40289;DHT22;28991;52.028;5.526;2023-01-15T13:54:45;18.20;43.60
40289;DHT22;28991;52.028;5.526;2023-01-15T13:59:55;18.10;43.60
40289;DHT22;28991;52.028;5.526;2023-01-15T14:04:49;18.30;43.80
40289;DHT22;28991;52.028;5.526;2023-01-15T14:07:30;18.20;43.80
40289;DHT22;28991;52.028;5.526;2023-01-15T14:10:06;18.20;43.80
40289;DHT22;28991;52.028;5.526;2023-01-15T14:12:44;18.20;43.80
40289;DHT22;28991;52.028;5.526;2023-01-15T14:18:01;18.20;43.80
40289;DHT22;28991;52.028;5.526;2023-01-15T14:28:21;18.20;43.90
40289;DHT22;28991;52.028;5.526;2023-01-15T14:33:20;18.20;44.00
40289;DHT22;28991;52.028;5.526;2023-01-15T14:35:50;18.20;44.00
40289;DHT22;28991;52.028;5.526;2023-01-15T14:38:19;18.20;44.10
40289;DHT22;28991;52.028;5.526;2023-01-15T14:40:54;18.10;44.10
40289;DHT22;28991;52.028;5.526;2023-01-15T14:43:20;18.20;44.20
40289;DHT22;28991;52.028;5.526;2023-01-15T14:45:48;18.20;44.20
40289;DHT22;28991;52.028;5.526;2023-01-15T14:50:42;18.20;44.30
40289;DHT22;28991;52.028;5.526;2023-01-15T14:58:16;18.20;44.40
40289;DHT22;28991;52.028;5.526;2023-01-15T15:00:44;18.10;44.40
40289;DHT22;28991;52.028;5.526;2023-01-15T15:03:12;18.10;44.50
40289;DHT22;28991;52.028;5.526;2023-01-15T15:05:40;18.20;44.60
40289;DHT22;28991;52.028;5.526;2023-01-15T15:08:05;18.00;44.50
40289;DHT22;28991;52.028;5.526;2023-01-15T15:10:32;18.90;45.00
40289;DHT22;28991;52.028;5.526;2023-01-15T15:15:33;18.40;44.80
40289;DHT22;28991;52.028;5.526;2023-01-15T15:23:07;18.00;44.80
40289;DHT22;28991;52.028;5.526;2023-01-15T15:25:35;18.00;44.80
40289;DHT22;28991;52.028;5.526;2023-01-15T15:28:03;18.00;44.90
40289;DHT22;28991;52.028;5.526;2023-01-15T15:30:29;18.00;44.90
40289;DHT22;28991;52.028;5.526;2023-01-15T15:32:56;18.00;44.90
40289;DHT22;28991;52.028;5.526;2023-01-15T15:35:30;17.90;45.00
40289;DHT22;28991;52.028;5.526;2023-01-15T15:38:01;18.00;45.00
40289;DHT22;28991;52.028;5.526;2023-01-15T15:40:30;18.00;45.10
40289;DHT22;28991;52.028;5.526;2023-01-15T15:43:04;17.90;45.10
40289;DHT22;28991;52.028;5.526;2023-01-15T15:45:55;17.90;45.10
40289;DHT22;28991;52.028;5.526;2023-01-15T15:48:40;18.00;45.20
40289;DHT22;28991;52.028;5.526;2023-01-15T15:53:50;17.90;45.30
40289;DHT22;28991;52.028;5.526;2023-01-15T15:56:15;17.90;45.30
40289;DHT22;28991;52.028;5.526;2023-01-15T15:58:41;17.90;45.40
40289;DHT22;28991;52.028;5.526;2023-01-15T16:01:10;18.00;45.40
40289;DHT22;28991;52.028;5.526;2023-01-15T16:03:44;17.80;45.40
40289;DHT22;28991;52.028;5.526;2023-01-15T16:06:16;17.90;45.50
40289;DHT22;28991;52.028;5.526;2023-01-15T16:08:50;17.80;45.40
40289;DHT22;28991;52.028;5.526;2023-01-15T16:11:15;17.90;45.50
40289;DHT22;28991;52.028;5.526;2023-01-15T16:13:45;18.00;45.60
40289;DHT22;28991;52.028;5.526;2023-01-15T16:16:11;17.80;45.50
40289;DHT22;28991;52.028;5.526;2023-01-15T16:18:38;17.80;45.60
40289;DHT22;28991;52.028;5.526;2023-01-15T16:21:08;17.80;45.60
40289;DHT22;28991;52.028;5.526;2023-01-15T16:23:34;17.90;45.70
40289;DHT22;28991;52.028;5.526;2023-01-15T16:26:02;17.80;45.60
40289;DHT22;28991;52.028;5.526;2023-01-15T16:28:32;17.80;45.70
40289;DHT22;28991;52.028;5.526;2023-01-15T16:31:00;17.80;45.70
40289;DHT22;28991;52.028;5.526;2023-01-15T16:33:26;17.90;45.80
40289;DHT22;28991;52.028;5.526;2023-01-15T16:35:56;17.90;45.80
40289;DHT22;28991;52.028;5.526;2023-01-15T16:38:22;17.60;45.70
40289;DHT22;28991;52.028;5.526;2023-01-15T16:40:48;18.30;46.10
40289;DHT22;28991;52.028;5.526;2023-01-15T16:43:15;17.80;45.90
40289;DHT22;28991;52.028;5.526;2023-01-15T16:48:42;18.00;46.00
40289;DHT22;28991;52.028;5.526;2023-01-15T16:53:54;17.80;45.90
40289;DHT22;28991;52.028;5.526;2023-01-15T16:56:46;17.90;46.00
40289;DHT22;28991;52.028;5.526;2023-01-15T16:59:16;17.70;45.90
40289;DHT22;28991;52.028;5.526;2023-01-15T17:01:43;17.80;46.00
40289;DHT22;28991;52.028;5.526;2023-01-15T17:07:00;17.80;46.10
40289;DHT22;28991;52.028;5.526;2023-01-15T17:09:27;17.70;46.10
40289;DHT22;28991;52.028;5.526;2023-01-15T17:11:54;17.70;46.10
40289;DHT22;28991;52.028;5.526;2023-01-15T17:14:22;17.70;46.10
40289;DHT22;28991;52.028;5.526;2023-01-15T17:16:48;17.80;46.20
40289;DHT22;28991;52.028;5.526;2023-01-15T17:19:33;17.60;46.10
40289;DHT22;28991;52.028;5.526;2023-01-15T17:21:59;17.90;46.20
40289;DHT22;28991;52.028;5.526;2023-01-15T17:24:24;17.70;46.70
40289;DHT22;28991;52.028;5.526;2023-01-15T17:26:50;17.70;46.20
40289;DHT22;28991;52.028;5.526;2023-01-15T17:29:15;17.70;46.20
40289;DHT22;28991;52.028;5.526;2023-01-15T17:31:41;17.60;46.20
40289;DHT22;28991;52.028;5.526;2023-01-15T17:34:08;17.70;46.20
40289;DHT22;28991;52.028;5.526;2023-01-15T17:36:34;17.40;46.10
40289;DHT22;28991;52.028;5.526;2023-01-15T17:39:00;17.70;46.30
40289;DHT22;28991;52.028;5.526;2023-01-15T17:41:25;17.80;46.40